Aeroporto :
LOGIN :

Iscrizione | Disclaimer

   EN    FR    IT 

 










Sommario :    VFR   VFR Marginale   IFR   IFR Intensivo   IFR Molto Intensivo
Visibilità : 
Base nubi : 
>= 8 km
>= 3000ft
5 / 8 km
1000 / 3000 ft
1500m / 5 km
500 / 1000 ft
800 / 1500m
200 / 500 ft
< 800m
< 200 ft
Simboli :   Temporali  Nebbia  Neve Forte  Precipitazioni Forti  Vento > 20 kt
SIGMETs :   Varie  Temporali  Ghiacco  Turbolenza  Onda orograficha  Ceneri Vulcaniche






- Altitudine del aeroporto : 3006 ft
- Codice IATA : LEN


LELN - Leon

ULTIMO METAR :
  • 150730Z 28009KT 250V320 9999 SCT012 01/00 Q1003

METARs OBSOLETI :
  • 150700Z 30009KT 250V340 9000 FEW010 SCT020 01/01 Q1003
  • 150630Z AUTO 28005KT 250V320 7000 -SN SCT021 BKN027 BKN032 00/00 Q1003
  • 150600Z AUTO 28005KT 240V330 1900 -SN BR VV010 01/01 Q1003
  • 150530Z AUTO 28006KT 250V330 9000 -SN VV015 01/01 Q1003
  • 150500Z AUTO 28004KT 240V320 3500 -SN BR VV012 00/00 Q1002

TAF TAF LELN
Valido dal 15 a 06 ore il 15 a 15 ore UTC


150500Z 1506/1515 29012KT 9999 SCT015 BKN030
TEMPO 1506/1515 3000 SN BKN004
PROB30
TEMPO 1510/1515 SCT020CB



MetMap, La meteo Aeronautica in un colpo d'occhio ! - Copyright ORBIFLY Dicembre 2007 - Disclaimer

ORBIFLY MET'MAP TEAM :

Programmazione e sviluppo : Alexandra Zaïnal
Concezione e sviluppo : Baudouin d'Aumeries
Co-Programmazione e sviluppo : Marc-Olivier Méhu
Supporto tecnico e logistico : Manuel Goepfert
Aiuto per la traduzione : Arnaldo La Scala

Contatto : metmap@orbifly.com




FONTI E CREDITI :

   NOAA